createdAt,value
2018-11-28T00:00:23.780Z,1.91
2018-11-28T00:02:52.463Z,1.88
2018-11-28T00:05:21.154Z,1.85
2018-11-28T00:08:09.526Z,1.77
2018-11-28T00:10:38.266Z,1.76
2018-11-28T00:13:06.970Z,1.80
2018-11-28T00:15:35.832Z,1.85
2018-11-28T00:18:05.266Z,1.91
2018-11-28T00:20:40.679Z,1.96
2018-11-28T00:23:09.385Z,1.98
2018-11-28T00:25:38.232Z,1.99
2018-11-28T00:28:06.945Z,1.98
2018-11-28T00:30:36.049Z,1.92
2018-11-28T00:33:05.230Z,1.85
2018-11-28T00:35:33.931Z,1.80
2018-11-28T00:38:02.899Z,1.74
2018-11-28T00:40:31.599Z,1.67
2018-11-28T00:43:00.313Z,1.61
2018-11-28T00:45:29.119Z,1.56
2018-11-28T00:47:57.830Z,1.58
2018-11-28T00:50:27.277Z,1.57
2018-11-28T00:52:55.981Z,1.54
2018-11-28T00:55:24.687Z,1.46
2018-11-28T00:57:53.381Z,1.46
2018-11-28T01:00:23.388Z,1.42
2018-11-28T01:02:52.154Z,1.40
2018-11-28T01:05:20.890Z,1.41
2018-11-28T01:07:50.079Z,1.38
2018-11-28T01:10:19.730Z,1.41
2018-11-28T01:12:49.125Z,1.41
2018-11-28T01:15:18.418Z,1.38
2018-11-28T01:17:47.158Z,1.38
2018-11-28T01:20:17.102Z,1.40
2018-11-28T01:22:45.827Z,1.36
2018-11-28T01:25:15.431Z,1.32
2018-11-28T01:27:44.438Z,1.29
2018-11-28T01:30:29.781Z,1.32
2018-11-28T01:32:58.429Z,1.32
2018-11-28T01:35:27.379Z,1.27
2018-11-28T01:37:56.111Z,1.22
2018-11-28T01:40:25.039Z,1.23
2018-11-28T01:42:53.851Z,1.22
2018-11-28T01:45:23.250Z,1.20
2018-11-28T01:47:51.991Z,1.22
2018-11-28T01:50:21.331Z,1.23
2018-11-28T01:52:50.229Z,1.26
2018-11-28T01:55:20.246Z,1.26
2018-11-28T01:57:49.251Z,1.28
2018-11-28T02:00:19.999Z,1.30
2018-11-28T02:02:49.991Z,1.27
2018-11-28T02:05:18.682Z,1.26
2018-11-28T02:07:47.409Z,1.30
2018-11-28T02:10:16.845Z,1.27
2018-11-28T02:12:45.590Z,1.22
2018-11-28T02:15:16.203Z,1.22
2018-11-28T02:17:44.906Z,1.28
2018-11-28T02:20:14.416Z,1.27
2018-11-28T02:22:43.163Z,1.19
2018-11-28T02:25:14.472Z,1.18
2018-11-28T02:27:43.230Z,1.17
2018-11-28T02:30:12.865Z,1.20
2018-11-28T02:32:41.888Z,1.25
2018-11-28T02:35:14.549Z,1.20
2018-11-28T02:37:43.340Z,1.12
2018-11-28T02:40:14.762Z,1.09
2018-11-28T02:42:43.533Z,1.10
2018-11-28T02:45:14.579Z,1.08
2018-11-28T02:47:43.278Z,1.12
2018-11-28T02:50:11.987Z,1.11
2018-11-28T02:52:40.701Z,1.06
2018-11-28T02:55:10.503Z,1.06
2018-11-28T02:57:39.530Z,1.03
2018-11-28T03:00:11.711Z,1.00
2018-11-28T03:02:40.411Z,1.00
2018-11-28T03:05:11.278Z,0.95
2018-11-28T03:07:40.013Z,0.93
2018-11-28T03:10:12.190Z,0.96
2018-11-28T03:12:40.908Z,1.02
2018-11-28T03:15:12.217Z,1.04
2018-11-28T03:17:40.915Z,1.07
2018-11-28T03:20:10.484Z,1.05
2018-11-28T03:22:39.173Z,1.05
2018-11-28T03:25:09.397Z,1.09
2018-11-28T03:27:38.109Z,1.12
2018-11-28T03:30:14.187Z,1.09
2018-11-28T03:32:42.848Z,1.12
2018-11-28T03:35:13.470Z,1.13
2018-11-28T03:37:42.170Z,1.10
2018-11-28T03:40:10.925Z,1.10
2018-11-28T03:42:39.834Z,1.09
2018-11-28T03:45:10.096Z,1.02
2018-11-28T03:47:38.809Z,1.02
2018-11-28T03:50:08.858Z,1.09
2018-11-28T03:52:38.405Z,1.20
2018-11-28T03:55:08.357Z,1.19
2018-11-28T03:57:37.088Z,1.16
2018-11-28T04:00:09.280Z,1.15
2018-11-28T04:02:38.158Z,1.16
2018-11-28T04:05:07.104Z,1.19
2018-11-28T04:07:35.854Z,1.14
2018-11-28T04:10:06.738Z,1.16
2018-11-28T04:12:35.434Z,1.20
2018-11-28T04:15:06.446Z,1.21
2018-11-28T04:17:35.173Z,1.21
2018-11-28T04:20:04.497Z,1.24
2018-11-28T04:22:33.207Z,1.25
2018-11-28T04:25:01.917Z,1.24
2018-11-28T04:27:30.862Z,1.27
2018-11-28T04:29:59.575Z,1.31
2018-11-28T04:32:28.291Z,1.25
2018-11-28T04:34:56.994Z,1.21
2018-11-28T04:37:25.695Z,1.22
2018-11-28T04:39:54.440Z,1.21
2018-11-28T04:42:23.136Z,1.18
2018-11-28T04:44:51.835Z,1.21
2018-11-28T04:47:20.554Z,1.18
2018-11-28T04:49:49.312Z,1.16
2018-11-28T04:52:18.010Z,1.23
2018-11-28T04:54:46.723Z,1.22
2018-11-28T04:57:15.423Z,1.18
2018-11-28T04:59:44.126Z,1.16
2018-11-28T05:02:12.809Z,1.19
2018-11-28T05:04:41.511Z,1.22
2018-11-28T05:07:25.921Z,1.24
2018-11-28T05:09:54.766Z,1.24
2018-11-28T05:12:23.500Z,1.26
2018-11-28T05:14:52.461Z,1.20
2018-11-28T05:17:21.269Z,1.20
2018-11-28T05:19:50.267Z,1.19
2018-11-28T05:22:18.982Z,1.18
2018-11-28T05:24:48.233Z,1.14
2018-11-28T05:27:16.948Z,1.12
2018-11-28T05:29:45.638Z,1.06
2018-11-28T05:32:14.462Z,1.10
2018-11-28T05:34:43.180Z,1.14
2018-11-28T05:37:12.142Z,1.12
2018-11-28T05:39:40.946Z,1.28
2018-11-28T05:42:09.658Z,1.39
2018-11-28T05:44:38.511Z,1.36
2018-11-28T05:47:07.217Z,1.38
2018-11-28T05:49:36.273Z,1.32
2018-11-28T05:52:05.558Z,1.31
2018-11-28T05:54:34.468Z,1.30
2018-11-28T05:57:03.468Z,1.29
2018-11-28T05:59:32.471Z,1.30
2018-11-28T06:02:01.287Z,1.33
2018-11-28T06:04:30.147Z,1.37
2018-11-28T06:06:58.857Z,1.37
2018-11-28T06:09:27.561Z,1.41
2018-11-28T06:11:56.254Z,1.42
2018-11-28T06:14:25.170Z,1.41
2018-11-28T06:16:54.329Z,1.40
2018-11-28T06:19:23.777Z,1.41
2018-11-28T06:21:52.790Z,1.41
2018-11-28T06:24:21.754Z,1.43
2018-11-28T06:26:50.578Z,1.43
2018-11-28T06:29:19.302Z,1.48
2018-11-28T06:31:48.015Z,1.50
2018-11-28T06:34:16.809Z,1.54
2018-11-28T06:36:45.797Z,1.55
2018-11-28T06:39:14.850Z,1.60
2018-11-28T06:41:43.827Z,1.61
2018-11-28T06:44:12.781Z,1.62
2018-11-28T06:46:41.767Z,1.61
2018-11-28T06:49:10.765Z,1.63
2018-11-28T06:51:39.480Z,1.61
2018-11-28T06:54:08.186Z,1.56
2018-11-28T06:56:36.894Z,1.57
2018-11-28T06:59:06.682Z,1.56
2018-11-28T07:01:35.397Z,1.59
2018-11-28T07:04:04.989Z,1.62
2018-11-28T07:06:33.700Z,1.63
2018-11-28T07:09:02.406Z,1.63
2018-11-28T07:11:31.393Z,1.67
2018-11-28T07:14:00.094Z,1.69
2018-11-28T07:16:29.062Z,1.73
2018-11-28T07:19:13.463Z,1.78
2018-11-28T07:21:42.445Z,1.83
2018-11-28T07:24:11.159Z,1.82
2018-11-28T07:26:39.907Z,1.84
2018-11-28T07:32:08.626Z,1.89
2018-11-28T07:34:37.347Z,1.92
2018-11-28T07:37:06.324Z,1.94
2018-11-28T07:39:35.035Z,1.95
2018-11-28T07:42:04.946Z,1.97
2018-11-28T07:44:33.666Z,2.03
2018-11-28T07:47:08.266Z,2.07
2018-11-28T07:49:36.977Z,2.12
2018-11-28T07:52:05.896Z,2.09
2018-11-28T07:54:34.982Z,2.18
2018-11-28T07:57:04.069Z,2.24
2018-11-28T07:59:32.751Z,2.25
2018-11-28T08:02:01.607Z,2.29
2018-11-28T08:04:30.389Z,2.29
2018-11-28T08:06:59.028Z,2.35
2018-11-28T08:09:28.298Z,2.37
2018-11-28T08:11:57.013Z,2.46
2018-11-28T08:14:25.958Z,2.50
2018-11-28T08:16:54.676Z,2.54
2018-11-28T08:19:24.136Z,2.50
2018-11-28T08:21:52.635Z,2.52
2018-11-28T08:24:21.023Z,2.58
2018-11-28T08:26:49.730Z,2.63
2018-11-28T08:29:18.708Z,2.66
2018-11-28T08:31:47.418Z,2.71
2018-11-28T08:34:16.125Z,2.74
2018-11-28T08:36:44.841Z,2.73
2018-11-28T08:39:13.542Z,2.80
2018-11-28T08:41:42.270Z,2.85
2018-11-28T08:44:11.255Z,2.89
2018-11-28T08:46:39.969Z,2.95
2018-11-28T08:49:08.683Z,3.01
2018-11-28T08:51:37.484Z,3.04
2018-11-28T08:54:06.101Z,3.10
2018-11-28T08:56:34.825Z,3.14
2018-11-28T08:59:04.583Z,3.20
2018-11-28T09:01:33.578Z,3.26
2018-11-28T09:04:02.288Z,3.29
2018-11-28T09:06:30.990Z,3.35
2018-11-28T09:08:59.698Z,3.40
2018-11-28T09:11:28.415Z,3.47
2018-11-28T09:13:57.463Z,3.52
2018-11-28T09:16:26.154Z,3.56
2018-11-28T09:18:54.877Z,3.61
2018-11-28T09:21:23.819Z,3.69
2018-11-28T09:23:52.947Z,3.73
2018-11-28T09:26:21.641Z,3.82
2018-11-28T09:28:50.336Z,3.87
2018-11-28T09:31:19.047Z,3.90
2018-11-28T09:33:47.860Z,3.96
2018-11-28T09:36:16.562Z,4.03
2018-11-28T09:38:45.391Z,4.10
2018-11-28T09:41:14.102Z,4.16
2018-11-28T09:43:42.814Z,4.24
2018-11-28T09:46:11.524Z,4.33
2018-11-28T09:48:40.229Z,4.40
2018-11-28T09:51:08.942Z,4.44
2018-11-28T09:53:37.689Z,4.49
2018-11-28T09:56:06.358Z,4.54
2018-11-28T09:58:35.072Z,4.61
2018-11-28T10:01:04.647Z,4.67
2018-11-28T10:03:33.362Z,4.72
2018-11-28T10:06:02.133Z,4.78
2018-11-28T10:08:30.797Z,4.87
2018-11-28T10:10:59.518Z,4.96
2018-11-28T10:13:28.241Z,5.06
2018-11-28T10:15:56.930Z,5.14
2018-11-28T10:18:25.626Z,5.22
2018-11-28T10:20:54.419Z,5.31
2018-11-28T10:23:23.112Z,5.38
2018-11-28T10:25:51.834Z,5.42
2018-11-28T10:28:20.916Z,5.52
2018-11-28T10:30:49.614Z,5.58
2018-11-28T10:33:18.588Z,5.63
2018-11-28T10:35:47.440Z,5.68
2018-11-28T10:38:16.138Z,5.74
2018-11-28T10:40:44.947Z,5.80
2018-11-28T10:43:13.648Z,5.88
2018-11-28T10:45:42.341Z,5.93
2018-11-28T10:48:12.088Z,5.98
2018-11-28T10:50:40.811Z,6.06
2018-11-28T10:53:09.778Z,6.08
2018-11-28T10:55:38.488Z,6.13
2018-11-28T10:58:07.978Z,6.18
2018-11-28T11:00:42.250Z,6.26
2018-11-28T11:03:16.721Z,6.32
2018-11-28T11:05:50.850Z,6.36
2018-11-28T11:08:25.881Z,6.40
2018-11-28T11:11:30.885Z,6.46
2018-11-28T11:14:04.950Z,6.53
2018-11-28T11:16:33.653Z,6.56
2018-11-28T11:19:02.519Z,6.64
2018-11-28T11:21:31.376Z,6.71
2018-11-28T11:24:00.090Z,6.73
2018-11-28T11:26:29.177Z,6.79
2018-11-28T11:28:57.882Z,6.88
2018-11-28T11:31:26.722Z,6.94
2018-11-28T11:33:55.432Z,6.96
2018-11-28T11:36:24.393Z,7.01
2018-11-28T11:38:53.391Z,7.04
2018-11-28T11:41:22.374Z,7.04
2018-11-28T11:43:51.067Z,7.06
2018-11-28T11:46:20.051Z,7.09
2018-11-28T11:48:48.758Z,7.12
2018-11-28T11:51:17.723Z,7.19
2018-11-28T11:53:46.436Z,7.25
2018-11-28T11:56:15.395Z,7.28
2018-11-28T11:58:44.111Z,7.28
2018-11-28T12:01:13.074Z,7.31
2018-11-28T12:03:41.778Z,7.37
2018-11-28T12:06:10.490Z,7.38
2018-11-28T12:08:39.210Z,7.39
2018-11-28T12:11:08.135Z,7.43
2018-11-28T12:13:36.831Z,7.44
2018-11-28T12:16:06.126Z,7.43
2018-11-28T12:18:35.111Z,7.47
2018-11-28T12:21:06.550Z,7.49
2018-11-28T12:23:35.848Z,7.54
2018-11-28T12:26:04.548Z,7.55
2018-11-28T12:28:33.550Z,7.57
2018-11-28T12:31:02.365Z,7.52
2018-11-28T12:33:31.208Z,7.55
2018-11-28T12:35:59.919Z,7.54
2018-11-28T12:38:28.614Z,7.63
2018-11-28T12:40:58.596Z,7.65
2018-11-28T12:43:27.286Z,7.72
2018-11-28T12:45:56.158Z,7.72
2018-11-28T12:48:24.883Z,7.77
2018-11-28T12:50:53.594Z,7.75
2018-11-28T12:53:22.298Z,7.76
2018-11-28T12:55:51.112Z,7.82
2018-11-28T12:58:20.957Z,7.88
2018-11-28T13:00:49.678Z,7.89
2018-11-28T13:03:19.106Z,7.92
2018-11-28T13:05:48.178Z,7.94
2018-11-28T13:08:16.878Z,7.95
2018-11-28T13:10:45.603Z,8.00
2018-11-28T13:13:14.316Z,7.97
2018-11-28T13:15:43.024Z,8.00
2018-11-28T13:18:11.884Z,8.02
2018-11-28T13:20:42.026Z,7.99
2018-11-28T13:23:13.253Z,7.96
2018-11-28T13:25:42.034Z,8.03
2018-11-28T13:28:10.754Z,8.05
2018-11-28T13:30:39.800Z,8.07
2018-11-28T13:33:09.015Z,8.10
2018-11-28T13:35:37.909Z,8.09
2018-11-28T13:38:09.096Z,8.12
2018-11-28T13:40:37.814Z,8.21
2018-11-28T13:43:06.839Z,8.23
2018-11-28T13:45:37.407Z,8.29
2018-11-28T13:48:06.382Z,8.30
2018-11-28T13:50:35.221Z,8.28
2018-11-28T13:53:10.632Z,8.30
2018-11-28T13:55:44.511Z,8.33
2018-11-28T13:58:13.257Z,8.34
2018-11-28T14:00:41.966Z,8.35
2018-11-28T14:03:10.667Z,8.35
2018-11-28T14:05:39.814Z,8.36
2018-11-28T14:08:08.586Z,8.34
2018-11-28T14:10:37.574Z,8.37
2018-11-28T14:13:06.598Z,8.37
2018-11-28T14:15:35.550Z,8.38
2018-11-28T14:18:10.850Z,8.37
2018-11-28T14:20:39.550Z,8.35
2018-11-28T14:23:08.265Z,8.37
2018-11-28T14:25:37.211Z,8.39
2018-11-28T14:28:07.034Z,8.39
2018-11-28T14:30:36.538Z,8.40
2018-11-28T14:33:05.254Z,8.38
2018-11-28T14:35:34.326Z,8.39
2018-11-28T14:38:03.267Z,8.40
2018-11-28T14:40:32.258Z,8.39
2018-11-28T14:43:01.298Z,8.40
2018-11-28T14:45:30.347Z,8.37
2018-11-28T14:47:59.214Z,8.38
2018-11-28T14:50:28.785Z,8.38
2018-11-28T14:52:58.985Z,8.40
2018-11-28T14:55:28.782Z,8.41
2018-11-28T14:57:57.978Z,8.40
2018-11-28T15:00:27.959Z,8.39
2018-11-28T15:02:58.279Z,8.38
2018-11-28T15:05:41.450Z,8.35
2018-11-28T15:08:12.560Z,8.34
2018-11-28T15:10:44.706Z,8.36
2018-11-28T15:13:13.401Z,8.37
2018-11-28T15:15:42.390Z,8.37
2018-11-28T15:18:11.104Z,8.33
2018-11-28T15:20:39.798Z,8.34
2018-11-28T15:23:08.510Z,8.32
2018-11-28T15:25:37.221Z,8.35
2018-11-28T15:28:06.123Z,8.33
2018-11-28T15:30:34.822Z,8.34
2018-11-28T15:33:03.546Z,8.30
2018-11-28T15:35:32.318Z,8.29
2018-11-28T15:38:01.037Z,8.32
2018-11-28T15:40:29.729Z,8.28
2018-11-28T15:42:58.452Z,8.32
2018-11-28T15:45:33.066Z,8.34
2018-11-28T15:48:02.054Z,8.32
2018-11-28T15:50:31.062Z,8.33
2018-11-28T15:53:00.043Z,8.38
2018-11-28T15:55:29.064Z,8.38
2018-11-28T15:57:57.775Z,8.40
2018-11-28T16:00:27.325Z,8.40
2018-11-28T16:02:57.546Z,8.42
2018-11-28T16:05:27.163Z,8.40
2018-11-28T16:07:56.160Z,8.40
2018-11-28T16:10:33.550Z,8.42
2018-11-28T16:13:05.119Z,8.40
2018-11-28T16:15:38.365Z,8.42
2018-11-28T16:18:07.162Z,8.43
2018-11-28T16:20:36.150Z,8.42
2018-11-28T16:23:07.311Z,8.44
2018-11-28T16:25:36.311Z,8.45
2018-11-28T16:28:05.418Z,8.44
2018-11-28T16:30:34.623Z,8.42
2018-11-28T16:33:04.495Z,8.40
2018-11-28T16:35:33.546Z,8.42
2018-11-28T16:38:02.515Z,8.37
2018-11-28T16:40:31.703Z,8.33
2018-11-28T16:43:06.546Z,8.32
2018-11-28T16:45:35.444Z,8.29
2018-11-28T16:48:04.646Z,8.27
2018-11-28T16:50:33.619Z,8.22
2018-11-28T16:53:03.014Z,8.18
2018-11-28T16:55:31.903Z,8.13
2018-11-28T16:58:01.079Z,8.10
2018-11-28T17:00:30.836Z,8.07
2018-11-28T17:02:59.779Z,8.06
2018-11-28T17:05:28.761Z,8.02
2018-11-28T17:07:57.753Z,7.98
2018-11-28T17:10:28.873Z,7.94
2018-11-28T17:12:58.393Z,7.88
2018-11-28T17:15:27.195Z,7.88
2018-11-28T17:17:56.179Z,7.87
2018-11-28T17:20:26.090Z,7.86
2018-11-28T17:22:56.839Z,7.82
2018-11-28T17:25:28.670Z,7.80
2018-11-28T17:27:57.382Z,7.81
2018-11-28T17:30:27.742Z,7.78
2018-11-28T17:32:56.542Z,7.75
2018-11-28T17:35:25.263Z,7.73
2018-11-28T17:37:54.126Z,7.73
2018-11-28T17:40:25.254Z,7.70
2018-11-28T17:42:57.181Z,7.67
2018-11-28T17:45:26.690Z,7.63
2018-11-28T17:47:55.560Z,7.60
2018-11-28T17:50:25.655Z,7.57
2018-11-28T17:53:02.928Z,7.53
2018-11-28T17:55:39.259Z,7.52
2018-11-28T17:58:08.181Z,7.53
2018-11-28T18:00:37.157Z,7.53
2018-11-28T18:03:05.866Z,7.52
2018-11-28T18:05:34.667Z,7.52
2018-11-28T18:08:03.398Z,7.50
2018-11-28T18:10:32.102Z,7.49
2018-11-28T18:13:13.508Z,7.45
2018-11-28T18:15:44.644Z,7.47
2018-11-28T18:18:15.003Z,7.51
2018-11-28T18:20:43.753Z,7.44
2018-11-28T18:23:12.691Z,7.39
2018-11-28T18:25:41.981Z,7.35
2018-11-28T18:28:11.882Z,7.32
2018-11-28T18:30:40.579Z,7.33
2018-11-28T18:33:10.694Z,7.35
2018-11-28T18:35:39.850Z,7.36
2018-11-28T18:38:08.581Z,7.35
2018-11-28T18:40:37.655Z,7.32
2018-11-28T18:43:07.023Z,7.37
2018-11-28T18:45:37.645Z,7.34
2018-11-28T18:48:06.753Z,7.31
2018-11-28T18:50:35.463Z,7.28
2018-11-28T18:53:04.985Z,7.30
2018-11-28T18:55:34.134Z,7.31
2018-11-28T18:58:02.882Z,7.32
2018-11-28T19:00:31.858Z,7.35
2018-11-28T19:03:01.290Z,7.36
2018-11-28T19:05:30.168Z,7.40
2018-11-28T19:07:59.134Z,7.40
2018-11-28T19:10:27.854Z,7.42
2018-11-28T19:12:56.572Z,7.41
2018-11-28T19:15:26.305Z,7.39
2018-11-28T19:17:55.760Z,7.42
2018-11-28T19:20:41.374Z,7.41
2018-11-28T19:23:10.189Z,7.42
2018-11-28T19:25:39.146Z,7.41
2018-11-28T19:28:07.927Z,7.39
2018-11-28T19:30:40.659Z,7.38
2018-11-28T19:33:10.782Z,7.42
2018-11-28T19:35:39.549Z,7.43
2018-11-28T19:38:09.684Z,7.50
2018-11-28T19:40:44.418Z,7.49
2018-11-28T19:43:13.298Z,7.48
2018-11-28T19:45:42.289Z,7.47
2018-11-28T19:48:11.282Z,7.47
2018-11-28T19:50:40.022Z,7.48
2018-11-28T19:53:09.342Z,7.48
2018-11-28T19:55:38.326Z,7.50
2018-11-28T19:58:07.275Z,7.49
2018-11-28T20:00:37.161Z,7.51
2018-11-28T20:03:06.425Z,7.51
2018-11-28T20:05:35.351Z,7.52
2018-11-28T20:08:04.809Z,7.52
2018-11-28T20:10:33.524Z,7.57
2018-11-28T20:13:02.438Z,7.58
2018-11-28T20:15:31.731Z,7.57
2018-11-28T20:18:00.567Z,7.57
2018-11-28T20:20:29.294Z,7.60
2018-11-28T20:22:58.097Z,7.59
2018-11-28T20:25:26.837Z,7.60
2018-11-28T20:27:57.719Z,7.65
2018-11-28T20:30:29.033Z,7.65
2018-11-28T20:32:57.778Z,7.69
2018-11-28T20:35:26.594Z,7.69
2018-11-28T20:37:55.434Z,7.70
2018-11-28T20:40:24.482Z,7.69
2018-11-28T20:42:54.186Z,7.70
2018-11-28T20:45:22.930Z,7.71
2018-11-28T20:47:51.728Z,7.74
2018-11-28T20:50:23.683Z,7.72
2018-11-28T20:52:55.097Z,7.75
2018-11-28T20:55:23.610Z,7.75
2018-11-28T20:57:52.590Z,7.78
2018-11-28T21:00:22.681Z,7.77
2018-11-28T21:02:51.392Z,7.81
2018-11-28T21:05:20.181Z,7.81
2018-11-28T21:07:48.905Z,7.79
2018-11-28T21:10:23.230Z,7.79
2018-11-28T21:12:52.220Z,7.78
2018-11-28T21:15:21.100Z,7.78
2018-11-28T21:17:50.515Z,7.82
2018-11-28T21:20:20.163Z,7.84
2018-11-28T21:22:58.803Z,7.87
2018-11-28T21:25:27.518Z,7.86
2018-11-28T21:27:56.481Z,7.86
2018-11-28T21:30:25.193Z,7.88
2018-11-28T21:32:54.828Z,7.86
2018-11-28T21:35:28.809Z,7.90
2018-11-28T21:37:57.513Z,7.92
2018-11-28T21:40:26.758Z,7.92
2018-11-28T21:42:55.658Z,7.91
2018-11-28T21:45:25.392Z,7.91
2018-11-28T21:47:54.242Z,7.90
2018-11-28T21:50:22.952Z,7.97
2018-11-28T21:52:51.906Z,7.99
2018-11-28T21:55:21.894Z,8.03
2018-11-28T21:57:51.007Z,8.06
2018-11-28T22:00:25.418Z,8.05
2018-11-28T22:02:54.371Z,8.05
2018-11-28T22:05:23.430Z,8.07
2018-11-28T22:07:52.351Z,8.06
2018-11-28T22:10:23.367Z,8.09
2018-11-28T22:12:52.587Z,8.12
2018-11-28T22:15:21.603Z,8.13
2018-11-28T22:17:55.558Z,8.11
2018-11-28T22:20:24.926Z,8.11
2018-11-28T22:22:54.019Z,8.13
2018-11-28T22:25:23.984Z,8.12
2018-11-28T22:27:53.010Z,8.14
2018-11-28T22:30:22.657Z,8.21
2018-11-28T22:32:51.453Z,8.22
2018-11-28T22:35:20.509Z,8.19
2018-11-28T22:37:49.445Z,8.22
2018-11-28T22:40:22.506Z,8.26
2018-11-28T22:42:51.419Z,8.28
2018-11-28T22:45:21.542Z,8.28
2018-11-28T22:47:50.337Z,8.31
2018-11-28T22:50:19.330Z,8.35
2018-11-28T22:52:48.301Z,8.35
2018-11-28T22:55:17.889Z,8.36
2018-11-28T22:57:46.926Z,8.41
2018-11-28T23:00:23.129Z,8.41
2018-11-28T23:02:58.082Z,8.41
2018-11-28T23:05:28.957Z,8.40
2018-11-28T23:07:58.999Z,8.43
2018-11-28T23:10:27.690Z,8.43
2018-11-28T23:12:56.497Z,8.46
2018-11-28T23:15:25.211Z,8.50
2018-11-28T23:17:55.323Z,8.51
2018-11-28T23:20:22.930Z,8.58
2018-11-28T23:22:51.882Z,8.59
2018-11-28T23:25:20.899Z,8.56
2018-11-28T23:27:51.060Z,8.58
2018-11-28T23:30:19.783Z,8.62
2018-11-28T23:32:50.447Z,8.63
2018-11-28T23:35:19.379Z,8.62
2018-11-28T23:37:48.894Z,8.64
2018-11-28T23:40:25.519Z,8.68
2018-11-28T23:42:54.806Z,8.70
2018-11-28T23:45:23.929Z,8.74
2018-11-28T23:47:52.850Z,8.74
2018-11-28T23:50:23.423Z,8.77
2018-11-28T23:52:53.143Z,8.81
2018-11-28T23:55:22.738Z,8.81
2018-11-28T23:57:51.790Z,8.84
